Crni Vrh, Serbia
Current Conditions -  °F | °C
As of 2:30 AM on Saturday 25 Oct 2014 (Local Time) from LYNI Reporting Station
Scattered Clouds Scattered Clouds  
Wind Chill: 37°   Ceiling: Unl
Heat Index: 43°   Visibility: 6mi
Dew Point: 36°   Wind: 10mph
Humidity: 76%   Direction: NA
Pressure: 30.06"   Gusts: NA
Location:  44.12°N, 21.95°E
Report Text: LYNI 250030Z VRB09KT 9999 FEW013 SCT040 06/02 Q1018
Loading
Personal Weather Stations






























Interactive Weather Map
Tropical Storm Tracking
New forecast layout! Learn more

10-Day Weather Forecast

Advertisements
Track Severe Weather on mobile